createdAt,value
2022-11-26T00:02:22.215Z,6.88
2022-11-26T00:04:50.752Z,6.89
2022-11-26T00:07:22.400Z,6.96
2022-11-26T00:09:50.624Z,6.95
2022-11-26T00:12:22.170Z,6.89
2022-11-26T00:14:50.036Z,6.93
2022-11-26T00:17:19.108Z,6.93
2022-11-26T00:19:47.634Z,6.85
2022-11-26T00:22:24.037Z,6.88
2022-11-26T00:24:52.596Z,6.88
2022-11-26T00:27:23.690Z,6.87
2022-11-26T00:29:51.590Z,6.87
2022-11-26T00:32:20.750Z,6.79
2022-11-26T00:34:48.571Z,6.82
2022-11-26T00:37:20.838Z,6.93
2022-11-26T00:39:49.263Z,6.93
2022-11-26T00:42:17.597Z,6.93
2022-11-26T00:44:46.947Z,7.03
2022-11-26T00:47:14.832Z,6.91
2022-11-26T00:49:42.697Z,6.96
2022-11-26T00:52:27.249Z,6.89
2022-11-26T00:54:55.117Z,6.86
2022-11-26T00:57:22.890Z,6.89
2022-11-26T00:59:51.987Z,6.90
2022-11-26T01:02:19.796Z,6.87
2022-11-26T01:04:47.599Z,6.89
2022-11-26T01:07:15.457Z,6.94
2022-11-26T01:09:47.552Z,6.96
2022-11-26T01:12:16.717Z,6.96
2022-11-26T01:14:44.471Z,6.91
2022-11-26T01:17:13.711Z,6.94
2022-11-26T01:19:41.434Z,6.86
2022-11-26T01:22:19.980Z,7.00
2022-11-26T01:24:48.062Z,6.97
2022-11-26T01:27:16.249Z,6.91
2022-11-26T01:29:44.006Z,6.94
2022-11-26T01:32:13.411Z,7.00
2022-11-26T01:34:41.223Z,6.93
2022-11-26T01:37:13.633Z,6.93
2022-11-26T01:39:41.622Z,6.92
2022-11-26T01:42:25.971Z,6.94
2022-11-26T01:44:53.755Z,6.92
2022-11-26T01:47:25.485Z,6.93
2022-11-26T01:50:42.301Z,6.93
2022-11-26T01:53:14.331Z,6.95
2022-11-26T01:55:47.609Z,6.88
2022-11-26T01:58:19.756Z,6.92
2022-11-26T02:00:48.774Z,6.96
2022-11-26T02:03:19.187Z,6.99
2022-11-26T02:05:55.242Z,7.02
2022-11-26T02:08:24.083Z,6.95
2022-11-26T02:10:52.799Z,6.97
2022-11-26T02:13:20.939Z,6.99
2022-11-26T02:15:59.949Z,6.95
2022-11-26T02:18:34.984Z,6.97
2022-11-26T02:21:07.135Z,6.99
2022-11-26T02:24:10.547Z,6.98
2022-11-26T02:27:12.803Z,6.94
2022-11-26T02:30:05.831Z,6.94
2022-11-26T02:32:41.541Z,6.94
2022-11-26T02:35:20.303Z,6.99
2022-11-26T02:37:52.857Z,7.00
2022-11-26T02:40:22.247Z,6.98
2022-11-26T02:42:50.012Z,6.98
2022-11-26T02:45:21.972Z,7.02
2022-11-26T02:47:54.102Z,6.96
2022-11-26T02:50:26.351Z,6.95
2022-11-26T02:52:58.199Z,6.99
2022-11-26T02:55:30.509Z,7.01
2022-11-26T02:57:59.628Z,7.00
2022-11-26T03:00:29.210Z,7.01
2022-11-26T03:03:01.993Z,7.08
2022-11-26T03:05:33.570Z,7.01
2022-11-26T03:08:03.857Z,7.00
2022-11-26T03:10:32.806Z,7.06
2022-11-26T03:13:00.794Z,7.06
2022-11-26T03:15:29.917Z,7.08
2022-11-26T03:17:57.645Z,7.12
2022-11-26T03:20:25.693Z,7.14
2022-11-26T03:22:53.382Z,7.16
2022-11-26T03:25:21.145Z,7.18
2022-11-26T03:27:48.912Z,7.16
2022-11-26T03:30:16.878Z,7.12
2022-11-26T03:32:45.945Z,7.20
2022-11-26T03:35:13.746Z,7.14
2022-11-26T03:37:41.580Z,7.15
2022-11-26T03:40:10.188Z,7.13
2022-11-26T03:42:38.251Z,7.11
2022-11-26T03:45:07.263Z,7.14
2022-11-26T03:47:34.992Z,7.14
2022-11-26T03:50:04.883Z,7.13
2022-11-26T03:52:32.691Z,7.19
2022-11-26T03:55:00.490Z,7.19
2022-11-26T03:57:28.285Z,7.20
2022-11-26T03:59:56.007Z,7.21
2022-11-26T04:02:23.961Z,7.23
2022-11-26T04:04:51.748Z,7.30
2022-11-26T04:07:20.914Z,7.38
2022-11-26T04:09:48.722Z,7.38
2022-11-26T04:12:16.499Z,7.34
2022-11-26T04:14:44.203Z,7.31
2022-11-26T04:17:11.985Z,7.33
2022-11-26T04:19:39.805Z,7.34
2022-11-26T04:22:07.624Z,7.34
2022-11-26T04:24:37.046Z,7.25
2022-11-26T04:27:05.004Z,7.34
2022-11-26T04:29:32.826Z,7.36
2022-11-26T04:32:00.671Z,7.48
2022-11-26T04:34:28.469Z,7.38
2022-11-26T04:36:56.330Z,7.31
2022-11-26T04:39:24.112Z,7.48
2022-11-26T04:41:53.237Z,7.40
2022-11-26T04:44:20.971Z,7.36
2022-11-26T04:46:48.669Z,7.33
2022-11-26T04:49:16.479Z,7.41
2022-11-26T04:51:44.404Z,7.43
2022-11-26T04:54:13.289Z,7.45
2022-11-26T04:56:41.389Z,7.44
2022-11-26T04:59:10.928Z,7.42
2022-11-26T05:01:38.688Z,7.43
2022-11-26T05:04:06.590Z,7.47
2022-11-26T05:06:34.564Z,7.40
2022-11-26T05:09:02.312Z,7.47
2022-11-26T05:11:30.004Z,7.48
2022-11-26T05:13:57.751Z,7.39
2022-11-26T05:16:26.923Z,7.37
2022-11-26T05:18:54.676Z,7.43
2022-11-26T05:21:22.466Z,7.35
2022-11-26T05:23:50.174Z,7.43
2022-11-26T05:26:17.989Z,7.35
2022-11-26T05:28:45.778Z,7.40
2022-11-26T05:31:13.574Z,7.37
2022-11-26T05:33:42.814Z,7.36
2022-11-26T05:36:10.621Z,7.35
2022-11-26T05:38:38.401Z,7.34
2022-11-26T05:41:06.179Z,7.36
2022-11-26T05:43:34.075Z,7.37
2022-11-26T05:46:05.280Z,7.35
2022-11-26T05:48:33.278Z,7.35
2022-11-26T05:51:03.385Z,7.37
2022-11-26T05:53:31.530Z,7.30
2022-11-26T05:55:59.520Z,7.33
2022-11-26T05:58:27.315Z,7.32
2022-11-26T06:00:55.110Z,7.38
2022-11-26T06:03:23.110Z,7.34
2022-11-26T06:05:51.060Z,7.41
2022-11-26T06:08:24.440Z,7.38
2022-11-26T06:10:52.212Z,7.43
2022-11-26T06:13:19.938Z,7.41
2022-11-26T06:15:47.753Z,7.38
2022-11-26T06:18:15.571Z,7.38
2022-11-26T06:20:43.369Z,7.39
2022-11-26T06:23:11.175Z,7.37
2022-11-26T06:25:42.477Z,7.38
2022-11-26T06:28:10.156Z,7.34
2022-11-26T06:30:37.942Z,7.41
2022-11-26T06:33:05.748Z,7.39
2022-11-26T06:35:33.455Z,7.45
2022-11-26T06:38:01.156Z,7.30
2022-11-26T06:40:28.899Z,7.43
2022-11-26T06:42:58.052Z,7.37
2022-11-26T06:45:26.235Z,7.38
2022-11-26T06:47:54.118Z,7.35
2022-11-26T06:50:23.810Z,7.36
2022-11-26T06:52:51.799Z,7.36
2022-11-26T06:55:19.928Z,7.38
2022-11-26T06:57:50.400Z,7.43
2022-11-26T07:00:21.910Z,7.38
2022-11-26T07:02:49.645Z,7.38
2022-11-26T07:05:17.555Z,7.38
2022-11-26T07:07:45.378Z,7.42
2022-11-26T07:10:13.301Z,7.43
2022-11-26T07:12:41.040Z,7.42
2022-11-26T07:15:10.053Z,7.42
2022-11-26T07:17:39.093Z,7.41
2022-11-26T07:20:08.281Z,7.43
2022-11-26T07:22:36.232Z,7.40
2022-11-26T07:25:08.094Z,7.39
2022-11-26T07:27:38.680Z,7.35
2022-11-26T07:30:07.967Z,7.48
2022-11-26T07:32:35.773Z,7.47
2022-11-26T07:35:05.414Z,7.48
2022-11-26T07:37:33.770Z,7.49
2022-11-26T07:40:01.620Z,7.47
2022-11-26T07:42:31.500Z,7.48
2022-11-26T07:44:59.379Z,7.48
2022-11-26T07:47:27.176Z,7.59
2022-11-26T07:49:55.025Z,7.54
2022-11-26T07:52:24.137Z,7.51
2022-11-26T07:54:51.883Z,7.55
2022-11-26T07:57:21.976Z,7.56
2022-11-26T07:59:50.221Z,7.52
2022-11-26T08:02:18.777Z,7.55
2022-11-26T08:04:46.564Z,7.50
2022-11-26T08:07:20.091Z,7.50
2022-11-26T08:09:52.296Z,7.55
2022-11-26T08:12:20.001Z,7.55
2022-11-26T08:14:47.715Z,7.61
2022-11-26T08:17:15.595Z,7.50
2022-11-26T08:19:43.403Z,7.60
2022-11-26T08:22:11.151Z,7.64
2022-11-26T08:24:40.102Z,7.64
2022-11-26T08:27:09.515Z,7.60
2022-11-26T08:29:37.626Z,7.67
2022-11-26T08:32:06.037Z,7.68
2022-11-26T08:34:33.952Z,7.65
2022-11-26T08:37:01.693Z,7.67
2022-11-26T08:39:29.656Z,7.67
2022-11-26T08:41:57.560Z,7.71
2022-11-26T08:44:26.738Z,7.78
2022-11-26T08:46:54.826Z,7.74
2022-11-26T08:49:22.583Z,7.74
2022-11-26T08:51:50.345Z,7.72
2022-11-26T08:54:18.236Z,7.77
2022-11-26T08:56:46.093Z,7.73
2022-11-26T08:59:13.802Z,7.74
2022-11-26T09:01:43.180Z,7.69
2022-11-26T09:04:10.943Z,7.80
2022-11-26T09:06:40.784Z,7.72
2022-11-26T09:09:15.643Z,7.77
2022-11-26T09:11:47.206Z,7.79
2022-11-26T09:14:17.668Z,7.72
2022-11-26T09:16:46.980Z,7.72
2022-11-26T09:19:15.981Z,7.74
2022-11-26T09:21:44.295Z,7.68
2022-11-26T09:24:12.414Z,7.70
2022-11-26T09:26:40.896Z,7.69
2022-11-26T09:29:08.652Z,7.75
2022-11-26T09:31:36.416Z,7.80
2022-11-26T09:34:05.557Z,7.82
2022-11-26T09:36:33.437Z,7.83
2022-11-26T09:39:02.032Z,7.75
2022-11-26T09:41:41.960Z,7.71
2022-11-26T09:44:22.131Z,7.73
2022-11-26T09:47:15.621Z,7.64
2022-11-26T09:49:59.907Z,7.68
2022-11-26T09:52:31.748Z,7.61
2022-11-26T09:55:06.726Z,7.71
2022-11-26T09:57:39.612Z,7.65
2022-11-26T10:00:19.741Z,7.59
2022-11-26T10:02:47.515Z,7.48
2022-11-26T10:05:21.107Z,7.50
2022-11-26T10:08:03.599Z,7.51
2022-11-26T10:10:39.145Z,7.58
2022-11-26T10:13:20.157Z,7.59
2022-11-26T10:15:59.255Z,7.51
2022-11-26T10:18:38.519Z,7.62
2022-11-26T10:21:32.297Z,7.52
2022-11-26T10:24:10.327Z,7.58
2022-11-26T10:26:40.673Z,7.61
2022-11-26T10:29:21.752Z,7.54
2022-11-26T10:31:51.253Z,7.54
2022-11-26T10:34:22.841Z,7.52
2022-11-26T10:36:53.988Z,7.55
2022-11-26T10:39:23.867Z,7.57
2022-11-26T10:41:51.967Z,7.45
2022-11-26T10:44:41.435Z,7.55
2022-11-26T10:47:27.860Z,7.49
2022-11-26T10:50:39.540Z,7.50
2022-11-26T10:53:06.039Z,7.48
2022-11-26T10:55:39.950Z,7.58
2022-11-26T10:58:16.815Z,7.57
2022-11-26T11:00:47.119Z,7.57
2022-11-26T11:03:25.047Z,7.53
2022-11-26T11:06:26.331Z,7.63
2022-11-26T11:08:56.127Z,7.62
2022-11-26T11:11:26.096Z,7.66
2022-11-26T11:13:54.439Z,7.63
2022-11-26T11:16:28.473Z,7.53
2022-11-26T11:18:58.945Z,7.58
2022-11-26T11:21:34.433Z,7.55
2022-11-26T11:24:16.486Z,7.62
2022-11-26T11:26:46.553Z,7.64
2022-11-26T11:29:33.526Z,7.72
2022-11-26T11:32:04.422Z,7.64
2022-11-26T11:34:35.123Z,7.71
2022-11-26T11:37:06.138Z,7.76
2022-11-26T11:39:36.597Z,7.75
2022-11-26T11:42:07.814Z,7.82
2022-11-26T11:44:40.425Z,7.86
2022-11-26T11:47:35.230Z,7.84
2022-11-26T11:50:20.419Z,7.95
2022-11-26T11:53:06.100Z,7.98
2022-11-26T11:55:51.328Z,8.01
2022-11-26T11:58:55.189Z,8.04
2022-11-26T12:01:44.173Z,7.99
2022-11-26T12:04:33.241Z,7.99
2022-11-26T12:07:32.817Z,8.02
2022-11-26T12:10:12.724Z,8.01
2022-11-26T12:12:45.665Z,7.95
2022-11-26T12:15:22.630Z,8.03
2022-11-26T12:17:56.194Z,8.09
2022-11-26T12:20:32.304Z,7.99
2022-11-26T12:23:13.204Z,7.92
2022-11-26T12:25:44.548Z,7.91
2022-11-26T12:28:16.994Z,7.82
2022-11-26T12:30:51.156Z,7.75
2022-11-26T12:33:24.477Z,7.81
2022-11-26T12:35:56.150Z,7.83
2022-11-26T12:38:28.840Z,7.84
2022-11-26T12:41:03.024Z,7.76
2022-11-26T12:43:46.679Z,7.72
2022-11-26T12:46:21.303Z,7.84
2022-11-26T12:48:54.682Z,7.67
2022-11-26T12:51:34.427Z,7.69
2022-11-26T12:54:06.378Z,7.79
2022-11-26T12:56:41.689Z,7.69
2022-11-26T12:59:23.125Z,7.70
2022-11-26T13:01:51.810Z,7.74
2022-11-26T13:04:37.186Z,7.63
2022-11-26T13:07:19.409Z,7.58
2022-11-26T13:10:05.797Z,7.55
2022-11-26T13:12:46.607Z,7.55
2022-11-26T13:15:22.080Z,7.58
2022-11-26T13:17:51.810Z,7.67
2022-11-26T13:20:30.431Z,7.54
2022-11-26T13:23:14.654Z,7.69
2022-11-26T13:26:03.454Z,7.78
2022-11-26T13:28:47.336Z,7.63
2022-11-26T13:31:36.252Z,7.60
2022-11-26T13:34:27.340Z,7.39
2022-11-26T13:37:15.338Z,7.45
2022-11-26T13:40:04.852Z,7.43
2022-11-26T13:42:59.618Z,7.37
2022-11-26T13:45:44.420Z,7.36
2022-11-26T13:48:19.191Z,7.35
2022-11-26T13:50:52.654Z,7.47
2022-11-26T13:53:27.220Z,7.51
2022-11-26T13:56:00.695Z,7.43
2022-11-26T13:58:32.025Z,7.47
2022-11-26T14:01:27.956Z,7.48
2022-11-26T14:03:58.105Z,7.46
2022-11-26T14:06:27.962Z,7.51
2022-11-26T14:08:56.628Z,7.53
2022-11-26T14:11:57.095Z,7.68
2022-11-26T14:14:32.791Z,7.57
2022-11-26T14:17:35.195Z,7.54
2022-11-26T14:20:06.989Z,7.68
2022-11-26T14:22:36.622Z,7.61
2022-11-26T14:25:07.335Z,7.68
2022-11-26T14:27:36.472Z,7.61
2022-11-26T14:30:25.555Z,7.57
2022-11-26T14:33:04.514Z,7.56
2022-11-26T14:35:35.674Z,7.47
2022-11-26T14:38:05.650Z,7.43
2022-11-26T14:40:35.722Z,7.47
2022-11-26T14:43:14.792Z,7.47
2022-11-26T14:45:43.224Z,7.44
2022-11-26T14:48:22.968Z,7.49
2022-11-26T14:50:52.082Z,7.49
2022-11-26T14:53:22.028Z,7.52
2022-11-26T14:55:51.429Z,7.47
2022-11-26T14:58:21.874Z,7.45
2022-11-26T15:01:07.888Z,7.45
2022-11-26T15:03:35.845Z,7.42
2022-11-26T15:06:05.220Z,7.38
2022-11-26T15:08:33.099Z,7.32
2022-11-26T15:11:04.022Z,7.33
2022-11-26T15:13:34.931Z,7.32
2022-11-26T15:16:04.980Z,7.35
2022-11-26T15:18:35.783Z,7.36
2022-11-26T15:21:06.489Z,7.36
2022-11-26T15:23:38.071Z,7.38
2022-11-26T15:26:07.092Z,7.33
2022-11-26T15:28:40.932Z,7.31
2022-11-26T15:31:10.017Z,7.28
2022-11-26T15:33:39.652Z,7.34
2022-11-26T15:36:15.859Z,7.30
2022-11-26T15:39:03.035Z,7.27
2022-11-26T15:41:31.642Z,7.32
2022-11-26T15:44:00.788Z,7.32
2022-11-26T15:46:32.549Z,7.30
2022-11-26T15:49:03.729Z,7.31
2022-11-26T15:51:37.350Z,7.32
2022-11-26T15:54:07.724Z,7.28
2022-11-26T15:56:39.814Z,7.31
2022-11-26T15:59:16.189Z,7.34
2022-11-26T16:01:47.039Z,7.36
2022-11-26T16:04:44.574Z,7.24
2022-11-26T16:07:16.462Z,7.23
2022-11-26T16:09:45.385Z,7.25
2022-11-26T16:12:27.921Z,7.28
2022-11-26T16:15:11.138Z,7.41
2022-11-26T16:17:41.296Z,7.42
2022-11-26T16:20:18.292Z,7.28
2022-11-26T16:22:49.927Z,7.24
2022-11-26T16:25:23.513Z,7.35
2022-11-26T16:28:07.257Z,7.47
2022-11-26T16:30:35.915Z,7.36
2022-11-26T16:33:04.150Z,7.42
2022-11-26T16:35:47.608Z,7.47
2022-11-26T16:38:24.910Z,7.27
2022-11-26T16:40:53.007Z,7.27
2022-11-26T16:43:21.214Z,7.36
2022-11-26T16:45:50.580Z,7.35
2022-11-26T16:48:25.408Z,7.36
2022-11-26T16:50:54.333Z,7.29
2022-11-26T16:53:24.136Z,7.32
2022-11-26T16:55:53.320Z,7.21
2022-11-26T16:58:27.637Z,7.26
2022-11-26T17:00:56.420Z,7.28
2022-11-26T17:03:25.168Z,7.30
2022-11-26T17:05:56.137Z,7.24
2022-11-26T17:08:25.358Z,7.21
2022-11-26T17:10:53.120Z,7.30
2022-11-26T17:13:21.218Z,7.29
2022-11-26T17:15:50.474Z,7.27
2022-11-26T17:18:21.284Z,7.26
2022-11-26T17:20:49.393Z,7.27
2022-11-26T17:23:17.253Z,7.24
2022-11-26T17:25:48.892Z,7.30
2022-11-26T17:28:17.090Z,7.28
2022-11-26T17:30:45.734Z,7.32
2022-11-26T17:33:14.008Z,7.24
2022-11-26T17:35:41.823Z,7.24
2022-11-26T17:38:15.789Z,7.24
2022-11-26T17:40:44.517Z,7.25
2022-11-26T17:43:14.338Z,7.31
2022-11-26T17:45:42.631Z,7.23
2022-11-26T17:48:13.814Z,7.24
2022-11-26T17:50:42.733Z,7.29
2022-11-26T17:53:14.937Z,7.29
2022-11-26T17:55:45.560Z,7.29
2022-11-26T17:58:19.877Z,7.32
2022-11-26T18:00:51.415Z,7.26
2022-11-26T18:03:22.938Z,7.27
2022-11-26T18:05:54.975Z,7.24
2022-11-26T18:08:33.621Z,7.28
2022-11-26T18:11:06.112Z,7.25
2022-11-26T18:13:42.912Z,7.22
2022-11-26T18:16:17.604Z,7.16
2022-11-26T18:18:50.015Z,7.15
2022-11-26T18:21:23.312Z,7.14
2022-11-26T18:23:59.241Z,7.14
2022-11-26T18:26:34.102Z,7.20
2022-11-26T18:29:08.097Z,7.17
2022-11-26T18:31:40.346Z,7.19
2022-11-26T18:34:08.782Z,7.23
2022-11-26T18:36:39.316Z,7.22
2022-11-26T18:39:07.508Z,7.22
2022-11-26T18:41:35.658Z,7.22
2022-11-26T18:44:05.004Z,7.21
2022-11-26T18:46:33.363Z,7.23
2022-11-26T18:49:01.187Z,7.23
2022-11-26T18:51:29.140Z,7.25
2022-11-26T18:53:56.830Z,7.26
2022-11-26T18:56:24.874Z,7.28
2022-11-26T18:58:52.972Z,7.30
2022-11-26T19:01:24.815Z,7.34
2022-11-26T19:03:53.559Z,7.37
2022-11-26T19:06:25.302Z,7.32
2022-11-26T19:08:58.305Z,7.39
2022-11-26T19:11:27.643Z,7.39
2022-11-26T19:13:57.071Z,7.34
2022-11-26T19:16:27.899Z,7.36
2022-11-26T19:18:55.777Z,7.32
2022-11-26T19:21:26.015Z,7.32
2022-11-26T19:23:55.514Z,7.30
2022-11-26T19:26:24.137Z,7.38
2022-11-26T19:28:52.595Z,7.39
2022-11-26T19:31:21.917Z,7.35
2022-11-26T19:33:53.835Z,7.36
2022-11-26T19:36:22.122Z,7.34
2022-11-26T19:38:55.604Z,7.32
2022-11-26T19:41:25.791Z,7.32
2022-11-26T19:43:54.653Z,7.41
2022-11-26T19:46:24.321Z,7.36
2022-11-26T19:48:54.047Z,7.34
2022-11-26T19:51:23.510Z,7.35
2022-11-26T19:53:53.145Z,7.38
2022-11-26T19:56:23.045Z,7.32
2022-11-26T19:58:53.743Z,7.32
2022-11-26T20:01:22.974Z,7.34
2022-11-26T20:03:51.385Z,7.49
2022-11-26T20:06:23.524Z,7.53
2022-11-26T20:08:51.384Z,7.55
2022-11-26T20:11:20.114Z,7.61
2022-11-26T20:13:49.516Z,7.62
2022-11-26T20:16:19.595Z,7.61
2022-11-26T20:18:47.839Z,7.61
2022-11-26T20:21:16.951Z,7.59
2022-11-26T20:23:46.421Z,7.74
2022-11-26T20:26:17.154Z,7.66
2022-11-26T20:28:45.741Z,7.49
2022-11-26T20:31:20.521Z,7.45
2022-11-26T20:33:53.127Z,7.45
2022-11-26T20:36:23.288Z,7.43
2022-11-26T20:38:55.607Z,7.41
2022-11-26T20:41:26.715Z,7.43
2022-11-26T20:43:59.178Z,7.45
2022-11-26T20:46:28.285Z,7.42
2022-11-26T20:48:56.823Z,7.50
2022-11-26T20:51:25.190Z,7.46
2022-11-26T20:53:58.364Z,7.44
2022-11-26T20:56:26.372Z,7.40
2022-11-26T20:58:54.331Z,7.43
2022-11-26T21:01:24.382Z,7.42
2022-11-26T21:03:53.050Z,7.41
2022-11-26T21:06:29.005Z,7.36
2022-11-26T21:09:00.741Z,7.40
2022-11-26T21:11:28.916Z,7.37
2022-11-26T21:13:58.633Z,7.32
2022-11-26T21:16:26.266Z,7.36
2022-11-26T21:18:55.202Z,7.39
2022-11-26T21:21:23.848Z,7.36
2022-11-26T21:23:52.497Z,7.34
2022-11-26T21:26:35.824Z,7.37
2022-11-26T21:29:03.942Z,7.42
2022-11-26T21:31:32.923Z,7.44
2022-11-26T21:34:03.092Z,7.42
2022-11-26T21:36:32.191Z,7.44
2022-11-26T21:39:00.488Z,7.40
2022-11-26T21:41:31.885Z,7.49
2022-11-26T21:44:03.515Z,7.43
2022-11-26T21:46:38.267Z,7.41
2022-11-26T21:49:07.408Z,7.37
2022-11-26T21:51:35.317Z,7.36
2022-11-26T21:54:03.442Z,7.37
2022-11-26T21:56:33.880Z,7.45
2022-11-26T21:59:02.579Z,7.44
2022-11-26T22:01:32.059Z,7.37
2022-11-26T22:04:01.819Z,7.38
2022-11-26T22:06:29.634Z,7.46
2022-11-26T22:08:57.729Z,7.45
2022-11-26T22:11:28.844Z,7.42
2022-11-26T22:13:59.739Z,7.34
2022-11-26T22:16:28.798Z,7.39
2022-11-26T22:18:57.430Z,7.37
2022-11-26T22:21:27.615Z,7.26
2022-11-26T22:23:56.833Z,7.26
2022-11-26T22:26:25.769Z,7.26
2022-11-26T22:28:56.089Z,7.25
2022-11-26T22:31:28.001Z,7.27
2022-11-26T22:33:57.439Z,7.25
2022-11-26T22:36:25.258Z,7.23
2022-11-26T22:38:53.433Z,7.23
2022-11-26T22:41:21.410Z,7.23
2022-11-26T22:43:51.090Z,7.26
2022-11-26T22:46:21.532Z,7.27
2022-11-26T22:48:53.594Z,7.24
2022-11-26T22:51:21.888Z,7.25
2022-11-26T22:53:53.921Z,7.30
2022-11-26T22:56:23.510Z,7.25
2022-11-26T22:58:51.560Z,7.21
2022-11-26T23:01:21.471Z,7.23
2022-11-26T23:03:49.466Z,7.27
2022-11-26T23:06:21.026Z,7.27
2022-11-26T23:08:49.219Z,7.23
2022-11-26T23:11:19.443Z,7.29
2022-11-26T23:13:48.336Z,7.32
2022-11-26T23:16:16.302Z,7.24
2022-11-26T23:18:46.827Z,7.28
2022-11-26T23:21:16.925Z,7.30
2022-11-26T23:23:46.522Z,7.27
2022-11-26T23:26:17.081Z,7.24
2022-11-26T23:28:46.305Z,7.23
2022-11-26T23:31:16.347Z,7.13
2022-11-26T23:33:44.172Z,7.15
2022-11-26T23:36:12.645Z,7.11
2022-11-26T23:38:40.807Z,7.07
2022-11-26T23:41:10.485Z,7.02
2022-11-26T23:43:39.303Z,6.95
2022-11-26T23:46:10.608Z,6.81
2022-11-26T23:48:38.797Z,6.75
2022-11-26T23:51:08.171Z,6.70
2022-11-26T23:53:37.290Z,6.68
2022-11-26T23:56:06.339Z,6.74
2022-11-26T23:58:35.758Z,6.80
